sensor_id;sensor_type;location;lat;lon;timestamp;pressure;altitude;pressure_sealevel;temperature;humidity
64368;BME280;50692;53.314;-6.300;2023-01-28T00:00:53;102936.06;;;5.32;74.50
64368;BME280;50692;53.314;-6.300;2023-01-28T00:03:42;102937.84;;;5.36;74.34
64368;BME280;50692;53.314;-6.300;2023-01-28T00:06:28;102944.84;;;5.43;74.03
64368;BME280;50692;53.314;-6.300;2023-01-28T00:09:14;102950.09;;;5.40;74.14
64368;BME280;50692;53.314;-6.300;2023-01-28T00:12:00;102951.00;;;5.54;74.05
64368;BME280;50692;53.314;-6.300;2023-01-28T00:14:45;102934.41;;;5.49;73.79
64368;BME280;50692;53.314;-6.300;2023-01-28T00:17:32;102932.69;;;5.64;73.67
64368;BME280;50692;53.314;-6.300;2023-01-28T00:20:21;102934.47;;;5.71;73.76
64368;BME280;50692;53.314;-6.300;2023-01-28T00:23:07;102928.34;;;5.73;73.59
64368;BME280;50692;53.314;-6.300;2023-01-28T00:25:53;102934.47;;;5.75;73.54
64368;BME280;50692;53.314;-6.300;2023-01-28T00:28:40;102925.72;;;5.73;73.80
64368;BME280;50692;53.314;-6.300;2023-01-28T00:31:26;102923.97;;;5.75;73.43
64368;BME280;50692;53.314;-6.300;2023-01-28T00:34:12;102925.72;;;5.73;73.66
64368;BME280;50692;53.314;-6.300;2023-01-28T00:36:58;102933.59;;;5.70;73.88
64368;BME280;50692;53.314;-6.300;2023-01-28T00:39:44;102930.06;;;5.68;73.88
64368;BME280;50692;53.314;-6.300;2023-01-28T00:42:29;102937.06;;;5.68;74.19
64368;BME280;50692;53.314;-6.300;2023-01-28T00:45:15;102945.81;;;5.67;74.47
64368;BME280;50692;53.314;-6.300;2023-01-28T00:48:01;102944.94;;;5.72;74.42
64368;BME280;50692;53.314;-6.300;2023-01-28T00:50:47;102938.84;;;5.80;74.58
64368;BME280;50692;53.314;-6.300;2023-01-28T00:53:33;102942.38;;;5.82;74.95
64368;BME280;50692;53.314;-6.300;2023-01-28T00:56:22;102940.59;;;5.84;75.11
64368;BME280;50692;53.314;-6.300;2023-01-28T00:59:08;102919.63;;;5.82;75.39
64368;BME280;50692;53.314;-6.300;2023-01-28T01:01:54;102902.09;;;5.80;75.67
64368;BME280;50692;53.314;-6.300;2023-01-28T01:04:57;102899.50;;;5.83;75.94
64368;BME280;50692;53.314;-6.300;2023-01-28T01:07:43;102909.09;;;5.87;75.93
64368;BME280;50692;53.314;-6.300;2023-01-28T01:10:29;102911.75;;;5.90;75.96
64368;BME280;50692;53.314;-6.300;2023-01-28T01:13:15;102902.13;;;5.90;75.92
64368;BME280;50692;53.314;-6.300;2023-01-28T01:16:04;102894.25;;;5.90;76.21
64368;BME280;50692;53.314;-6.300;2023-01-28T01:18:55;102890.78;;;5.91;76.27
64368;BME280;50692;53.314;-6.300;2023-01-28T01:21:40;102887.25;;;5.86;76.41
64368;BME280;50692;53.314;-6.300;2023-01-28T01:24:26;102884.59;;;5.80;76.58
64368;BME280;50692;53.314;-6.300;2023-01-28T01:27:14;102888.97;;;5.75;76.50
64368;BME280;50692;53.314;-6.300;2023-01-28T01:29:59;102888.09;;;5.76;76.54
64368;BME280;50692;53.314;-6.300;2023-01-28T01:32:45;102884.63;;;5.78;77.03
64368;BME280;50692;53.314;-6.300;2023-01-28T01:35:31;102884.63;;;5.78;77.38
64368;BME280;50692;53.314;-6.300;2023-01-28T01:38:17;102887.22;;;5.83;77.52
64368;BME280;50692;53.314;-6.300;2023-01-28T01:41:03;102882.88;;;5.87;78.21
64368;BME280;50692;53.314;-6.300;2023-01-28T01:47:17;102864.50;;;5.74;79.26
64368;BME280;50692;53.314;-6.300;2023-01-28T01:50:12;102878.50;;;5.78;79.72
64368;BME280;50692;53.314;-6.300;2023-01-28T01:53:10;102891.63;;;5.84;79.74
64368;BME280;50692;53.314;-6.300;2023-01-28T01:56:01;102882.84;;;5.73;81.14
64368;BME280;50692;53.314;-6.300;2023-01-28T01:58:50;102882.84;;;5.70;81.75
64368;BME280;50692;53.314;-6.300;2023-01-28T02:01:38;102882.81;;;5.65;82.44
64368;BME280;50692;53.314;-6.300;2023-01-28T02:04:28;102881.09;;;5.64;83.29
64368;BME280;50692;53.314;-6.300;2023-01-28T02:07:16;102892.44;;;5.60;84.41
64368;BME280;50692;53.314;-6.300;2023-01-28T02:10:04;102900.31;;;5.57;85.33
64368;BME280;50692;53.314;-6.300;2023-01-28T02:12:55;102899.44;;;5.58;85.31
64368;BME280;50692;53.314;-6.300;2023-01-28T02:15:43;102912.56;;;5.57;85.73
64368;BME280;50692;53.314;-6.300;2023-01-28T02:18:31;102916.06;;;5.57;86.61
64368;BME280;50692;53.314;-6.300;2023-01-28T02:22:00;102914.31;;;5.62;86.65
64368;BME280;50692;53.314;-6.300;2023-01-28T02:28:17;102912.59;;;5.67;87.11
64368;BME280;50692;53.314;-6.300;2023-01-28T02:34:05;102917.84;;;5.76;87.01
64368;BME280;50692;53.314;-6.300;2023-01-28T02:37:02;102920.47;;;5.80;86.82
64368;BME280;50692;53.314;-6.300;2023-01-28T02:40:05;102925.75;;;5.84;86.93
64368;BME280;50692;53.314;-6.300;2023-01-28T02:42:54;102933.63;;;5.92;86.39
64368;BME280;50692;53.314;-6.300;2023-01-28T02:45:40;102934.53;;;5.92;86.63
64368;BME280;50692;53.314;-6.300;2023-01-28T02:48:44;102930.16;;;5.91;87.00
64368;BME280;50692;53.314;-6.300;2023-01-28T02:55:14;102906.47;;;5.74;89.70
64368;BME280;50692;53.314;-6.300;2023-01-28T03:01:24;102903.84;;;5.70;90.38
64368;BME280;50692;53.314;-6.300;2023-01-28T03:04:22;102881.06;;;5.66;90.11
64368;BME280;50692;53.314;-6.300;2023-01-28T03:07:13;102873.22;;;5.69;90.50
64368;BME280;50692;53.314;-6.300;2023-01-28T03:10:03;102874.97;;;5.67;90.95
64368;BME280;50692;53.314;-6.300;2023-01-28T03:12:55;102877.59;;;5.71;91.22
64368;BME280;50692;53.314;-6.300;2023-01-28T03:16:00;102877.59;;;5.71;91.65
64368;BME280;50692;53.314;-6.300;2023-01-28T03:19:04;102865.34;;;5.72;92.12
64368;BME280;50692;53.314;-6.300;2023-01-28T03:22:08;102848.72;;;5.71;91.11
64368;BME280;50692;53.314;-6.300;2023-01-28T03:25:14;102851.34;;;5.73;91.65
64368;BME280;50692;53.314;-6.300;2023-01-28T03:28:20;102846.97;;;5.67;91.87
64368;BME280;50692;53.314;-6.300;2023-01-28T03:31:25;102849.59;;;5.67;92.05
64368;BME280;50692;53.314;-6.300;2023-01-28T03:34:29;102866.22;;;5.63;92.42
64368;BME280;50692;53.314;-6.300;2023-01-28T03:37:34;102866.22;;;5.65;92.43
64368;BME280;50692;53.314;-6.300;2023-01-28T03:40:20;102883.72;;;5.69;92.07
64368;BME280;50692;53.314;-6.300;2023-01-28T03:43:06;102892.50;;;5.77;91.77
64368;BME280;50692;53.314;-6.300;2023-01-28T03:45:51;102894.22;;;5.80;92.12
64368;BME280;50692;53.314;-6.300;2023-01-28T03:48:37;102888.09;;;5.84;92.15
64368;BME280;50692;53.314;-6.300;2023-01-28T03:51:23;102874.97;;;5.84;92.87
64368;BME280;50692;53.314;-6.300;2023-01-28T03:54:09;102861.84;;;5.79;94.12
64368;BME280;50692;53.314;-6.300;2023-01-28T03:56:55;102863.63;;;5.85;94.10
64368;BME280;50692;53.314;-6.300;2023-01-28T03:59:41;102873.25;;;5.90;94.29
64368;BME280;50692;53.314;-6.300;2023-01-28T04:02:26;102880.28;;;5.96;94.74
64368;BME280;50692;53.314;-6.300;2023-01-28T04:05:12;102877.66;;;5.93;94.89
64368;BME280;50692;53.314;-6.300;2023-01-28T04:08:00;102888.16;;;6.04;94.71
64368;BME280;50692;53.314;-6.300;2023-01-28T04:10:46;102889.06;;;6.13;94.43
64368;BME280;50692;53.314;-6.300;2023-01-28T04:13:32;102887.31;;;6.21;94.40
64368;BME280;50692;53.314;-6.300;2023-01-28T04:16:18;102867.16;;;6.14;94.00
64368;BME280;50692;53.314;-6.300;2023-01-28T04:19:05;102884.69;;;6.31;93.79
64368;BME280;50692;53.314;-6.300;2023-01-28T04:21:51;102883.78;;;6.33;93.67
64368;BME280;50692;53.314;-6.300;2023-01-28T04:24:39;102880.31;;;6.34;93.79
64368;BME280;50692;53.314;-6.300;2023-01-28T04:27:25;102879.41;;;6.34;93.91
64368;BME280;50692;53.314;-6.300;2023-01-28T04:30:11;102874.16;;;6.37;94.36
64368;BME280;50692;53.314;-6.300;2023-01-28T04:32:57;102863.63;;;6.37;94.29
64368;BME280;50692;53.314;-6.300;2023-01-28T04:35:42;102865.41;;;6.35;94.65
64368;BME280;50692;53.314;-6.300;2023-01-28T04:38:28;102872.44;;;6.34;94.68
64368;BME280;50692;53.314;-6.300;2023-01-28T04:41:14;102871.53;;;6.34;95.08
64368;BME280;50692;53.314;-6.300;2023-01-28T04:44:00;102857.53;;;6.29;95.13
64368;BME280;50692;53.314;-6.300;2023-01-28T04:46:46;102856.69;;;6.23;95.02
64368;BME280;50692;53.314;-6.300;2023-01-28T04:49:31;102871.53;;;6.24;94.67
64368;BME280;50692;53.314;-6.300;2023-01-28T04:52:17;102874.19;;;6.24;94.67
64368;BME280;50692;53.314;-6.300;2023-01-28T04:55:03;102868.91;;;6.12;94.89
64368;BME280;50692;53.314;-6.300;2023-01-28T04:57:50;102896.06;;;6.14;94.92
64368;BME280;50692;53.314;-6.300;2023-01-28T05:00:35;102896.94;;;6.16;95.12
64368;BME280;50692;53.314;-6.300;2023-01-28T05:03:22;102897.81;;;6.18;95.59
64368;BME280;50692;53.314;-6.300;2023-01-28T05:06:08;102890.78;;;6.19;96.17
64368;BME280;50692;53.314;-6.300;2023-01-28T05:08:54;102900.44;;;6.17;96.64
64368;BME280;50692;53.314;-6.300;2023-01-28T05:11:40;102892.56;;;6.14;96.88
64368;BME280;50692;53.314;-6.300;2023-01-28T05:14:26;102903.06;;;6.08;97.57
64368;BME280;50692;53.314;-6.300;2023-01-28T05:17:12;102907.41;;;6.09;97.12
64368;BME280;50692;53.314;-6.300;2023-01-28T05:19:57;102901.31;;;6.10;97.05
64368;BME280;50692;53.314;-6.300;2023-01-28T05:22:43;102906.56;;;6.07;97.18
64368;BME280;50692;53.314;-6.300;2023-01-28T05:25:29;102905.69;;;6.06;97.41
64368;BME280;50692;53.314;-6.300;2023-01-28T05:28:15;102907.41;;;6.09;97.40
64368;BME280;50692;53.314;-6.300;2023-01-28T05:31:05;102907.44;;;6.13;97.14
64368;BME280;50692;53.314;-6.300;2023-01-28T05:33:51;102904.81;;;6.15;96.96
64368;BME280;50692;53.314;-6.300;2023-01-28T05:36:40;102921.47;;;6.20;96.98
64368;BME280;50692;53.314;-6.300;2023-01-28T05:39:26;102920.56;;;6.18;97.15
64368;BME280;50692;53.314;-6.300;2023-01-28T05:42:12;102904.81;;;6.15;97.20
64368;BME280;50692;53.314;-6.300;2023-01-28T05:44:59;102910.06;;;6.16;97.37
64368;BME280;50692;53.314;-6.300;2023-01-28T05:47:45;102917.94;;;6.24;96.83
64368;BME280;50692;53.314;-6.300;2023-01-28T05:50:31;102917.94;;;6.33;96.61
64368;BME280;50692;53.314;-6.300;2023-01-28T05:53:17;102909.19;;;6.33;96.60
64368;BME280;50692;53.314;-6.300;2023-01-28T05:56:03;102908.31;;;6.32;96.72
64368;BME280;50692;53.314;-6.300;2023-01-28T05:58:49;102896.91;;;6.33;96.56
64368;BME280;50692;53.314;-6.300;2023-01-28T06:01:35;102883.81;;;6.32;96.32
64368;BME280;50692;53.314;-6.300;2023-01-28T06:04:20;102886.44;;;6.32;96.44
64368;BME280;50692;53.314;-6.300;2023-01-28T06:07:06;102890.81;;;6.36;96.33
64368;BME280;50692;53.314;-6.300;2023-01-28T06:09:52;102885.53;;;6.33;96.31
64368;BME280;50692;53.314;-6.300;2023-01-28T06:12:38;102881.19;;;6.24;96.37
64368;BME280;50692;53.314;-6.300;2023-01-28T06:15:24;102890.78;;;6.27;96.68
64368;BME280;50692;53.314;-6.300;2023-01-28T06:18:09;102896.94;;;6.22;97.06
64368;BME280;50692;53.314;-6.300;2023-01-28T06:20:55;102894.28;;;6.22;96.73
64368;BME280;50692;53.314;-6.300;2023-01-28T06:23:41;102889.94;;;6.20;96.87
64368;BME280;50692;53.314;-6.300;2023-01-28T06:26:27;102882.06;;;6.20;96.81
64368;BME280;50692;53.314;-6.300;2023-01-28T06:29:12;102884.66;;;6.18;97.32
64368;BME280;50692;53.314;-6.300;2023-01-28T06:31:58;102887.31;;;6.20;97.39
64368;BME280;50692;53.314;-6.300;2023-01-28T06:34:44;102883.81;;;6.16;97.88
64368;BME280;50692;53.314;-6.300;2023-01-28T06:37:30;102884.69;;;6.17;97.81
64368;BME280;50692;53.314;-6.300;2023-01-28T06:40:16;102885.56;;;6.14;97.73
64368;BME280;50692;53.314;-6.300;2023-01-28T06:43:02;102887.28;;;6.12;97.92
64368;BME280;50692;53.314;-6.300;2023-01-28T06:45:48;102882.06;;;6.09;97.92
64368;BME280;50692;53.314;-6.300;2023-01-28T06:48:34;102887.31;;;6.09;98.20
64368;BME280;50692;53.314;-6.300;2023-01-28T06:51:19;102884.66;;;6.08;97.95
64368;BME280;50692;53.314;-6.300;2023-01-28T06:54:05;102889.03;;;6.01;98.12
64368;BME280;50692;53.314;-6.300;2023-01-28T06:56:51;102885.53;;;6.04;97.77
64368;BME280;50692;53.314;-6.300;2023-01-28T06:59:37;102890.81;;;6.04;97.56
64368;BME280;50692;53.314;-6.300;2023-01-28T07:02:23;102881.16;;;6.04;97.00
64368;BME280;50692;53.314;-6.300;2023-01-28T07:05:09;102878.53;;;6.01;96.49
64368;BME280;50692;53.314;-6.300;2023-01-28T07:07:55;102877.66;;;6.00;96.33
64368;BME280;50692;53.314;-6.300;2023-01-28T07:10:41;102884.66;;;6.01;96.38
64368;BME280;50692;53.314;-6.300;2023-01-28T07:13:28;102883.78;;;6.01;96.31
64368;BME280;50692;53.314;-6.300;2023-01-28T07:16:14;102883.78;;;6.04;96.45
64368;BME280;50692;53.314;-6.300;2023-01-28T07:19:00;102869.78;;;6.00;96.47
64368;BME280;50692;53.314;-6.300;2023-01-28T07:21:45;102868.94;;;6.09;96.44
64368;BME280;50692;53.314;-6.300;2023-01-28T07:24:31;102868.91;;;6.11;96.26
64368;BME280;50692;53.314;-6.300;2023-01-28T07:27:18;102871.56;;;6.09;96.40
64368;BME280;50692;53.314;-6.300;2023-01-28T07:30:04;102868.94;;;6.06;97.02
64368;BME280;50692;53.314;-6.300;2023-01-28T07:32:54;102877.66;;;6.11;97.40
64368;BME280;50692;53.314;-6.300;2023-01-28T07:35:40;102888.19;;;6.13;97.61
64368;BME280;50692;53.314;-6.300;2023-01-28T07:38:26;102884.66;;;6.15;98.00
64368;BME280;50692;53.314;-6.300;2023-01-28T07:41:12;102881.19;;;6.21;98.15
64368;BME280;50692;53.314;-6.300;2023-01-28T07:43:58;102879.44;;;6.24;98.43
64368;BME280;50692;53.314;-6.300;2023-01-28T07:46:43;102881.19;;;6.27;98.25
64368;BME280;50692;53.314;-6.300;2023-01-28T07:49:29;102868.91;;;6.28;98.34
64368;BME280;50692;53.314;-6.300;2023-01-28T07:52:15;102865.41;;;6.25;98.47
64368;BME280;50692;53.314;-6.300;2023-01-28T07:55:01;102871.53;;;6.21;98.34
64368;BME280;50692;53.314;-6.300;2023-01-28T07:57:57;102864.53;;;6.11;98.64
64368;BME280;50692;53.314;-6.300;2023-01-28T08:00:43;102869.78;;;6.08;98.76
64368;BME280;50692;53.314;-6.300;2023-01-28T08:03:29;102872.41;;;6.11;98.56
64368;BME280;50692;53.314;-6.300;2023-01-28T08:06:15;102876.81;;;6.09;98.27
64368;BME280;50692;53.314;-6.300;2023-01-28T08:09:01;102877.66;;;5.96;98.41
64368;BME280;50692;53.314;-6.300;2023-01-28T08:11:49;102891.66;;;6.12;98.07
64368;BME280;50692;53.314;-6.300;2023-01-28T08:14:35;102901.31;;;6.13;97.71
64368;BME280;50692;53.314;-6.300;2023-01-28T08:17:21;102891.66;;;6.01;97.81
64368;BME280;50692;53.314;-6.300;2023-01-28T08:20:07;102899.53;;;6.04;98.35
64368;BME280;50692;53.314;-6.300;2023-01-28T08:23:16;102906.53;;;6.05;98.67
64368;BME280;50692;53.314;-6.300;2023-01-28T08:26:02;102912.69;;;6.04;98.77
64368;BME280;50692;53.314;-6.300;2023-01-28T08:28:48;102913.56;;;6.03;99.16
64368;BME280;50692;53.314;-6.300;2023-01-28T08:31:34;102909.19;;;6.10;99.31
64368;BME280;50692;53.314;-6.300;2023-01-28T08:34:20;102905.69;;;6.15;99.70
64368;BME280;50692;53.314;-6.300;2023-01-28T08:37:05;102919.72;;;6.20;100.00
64368;BME280;50692;53.314;-6.300;2023-01-28T08:39:51;102919.69;;;6.27;100.00
64368;BME280;50692;53.314;-6.300;2023-01-28T08:42:37;102921.44;;;6.29;100.00
64368;BME280;50692;53.314;-6.300;2023-01-28T08:45:25;102917.06;;;6.36;100.00
64368;BME280;50692;53.314;-6.300;2023-01-28T08:48:14;102924.09;;;6.41;100.00
64368;BME280;50692;53.314;-6.300;2023-01-28T08:51:00;102921.44;;;6.46;100.00
64368;BME280;50692;53.314;-6.300;2023-01-28T08:53:46;102916.19;;;6.54;100.00
64368;BME280;50692;53.314;-6.300;2023-01-28T08:56:32;102917.03;;;6.62;100.00
64368;BME280;50692;53.314;-6.300;2023-01-28T08:59:18;102880.28;;;6.46;99.88
64368;BME280;50692;53.314;-6.300;2023-01-28T09:02:03;102919.66;;;6.74;99.60
64368;BME280;50692;53.314;-6.300;2023-01-28T09:04:49;102923.13;;;6.87;99.43
64368;BME280;50692;53.314;-6.300;2023-01-28T09:07:36;102915.22;;;6.93;99.13
64368;BME280;50692;53.314;-6.300;2023-01-28T09:10:22;102921.38;;;6.93;99.08
64368;BME280;50692;53.314;-6.300;2023-01-28T09:13:13;102923.09;;;6.97;99.08
64368;BME280;50692;53.314;-6.300;2023-01-28T09:15:59;102921.34;;;7.03;98.92
64368;BME280;50692;53.314;-6.300;2023-01-28T09:18:45;102916.94;;;7.11;98.64
64368;BME280;50692;53.314;-6.300;2023-01-28T09:21:32;102917.78;;;7.19;98.23
64368;BME280;50692;53.314;-6.300;2023-01-28T09:24:18;102910.78;;;7.16;98.44
64368;BME280;50692;53.314;-6.300;2023-01-28T09:27:04;102919.53;;;7.25;98.22
64368;BME280;50692;53.314;-6.300;2023-01-28T09:29:50;102921.22;;;7.30;98.30
64368;BME280;50692;53.314;-6.300;2023-01-28T09:32:36;102919.47;;;7.35;98.16
64368;BME280;50692;53.314;-6.300;2023-01-28T09:35:22;102910.69;;;7.39;97.96
64368;BME280;50692;53.314;-6.300;2023-01-28T09:38:09;102918.53;;;7.47;97.73
64368;BME280;50692;53.314;-6.300;2023-01-28T09:40:55;102915.88;;;7.56;97.57
64368;BME280;50692;53.314;-6.300;2023-01-28T09:46:46;102917.50;;;7.73;96.97
64368;BME280;50692;53.314;-6.300;2023-01-28T09:49:39;102912.25;;;7.73;95.95
64368;BME280;50692;53.314;-6.300;2023-01-28T09:52:29;102926.22;;;7.85;96.14
64368;BME280;50692;53.314;-6.300;2023-01-28T09:55:28;102920.94;;;7.87;95.68
64368;BME280;50692;53.314;-6.300;2023-01-28T09:58:15;102920.03;;;7.96;95.46
64368;BME280;50692;53.314;-6.300;2023-01-28T10:07:13;102933.91;;;8.13;95.52
64368;BME280;50692;53.314;-6.300;2023-01-28T10:10:12;102930.38;;;8.18;95.73
64368;BME280;50692;53.314;-6.300;2023-01-28T10:19:19;102946.22;;;8.12;96.21
64368;BME280;50692;53.314;-6.300;2023-01-28T10:22:20;102959.41;;;8.12;96.32
64368;BME280;50692;53.314;-6.300;2023-01-28T10:25:17;102956.78;;;8.09;96.68
64368;BME280;50692;53.314;-6.300;2023-01-28T10:28:10;102937.59;;;7.93;97.30
64368;BME280;50692;53.314;-6.300;2023-01-28T10:30:59;102959.44;;;8.08;97.45
64368;BME280;50692;53.314;-6.300;2023-01-28T10:33:45;102962.03;;;8.14;97.33
64368;BME280;50692;53.314;-6.300;2023-01-28T10:36:30;102973.41;;;8.21;97.38
64368;BME280;50692;53.314;-6.300;2023-01-28T10:39:19;102977.72;;;8.29;97.67
64368;BME280;50692;53.314;-6.300;2023-01-28T10:42:29;102981.19;;;8.37;97.89
64368;BME280;50692;53.314;-6.300;2023-01-28T10:48:07;102982.06;;;8.41;98.15
64368;BME280;50692;53.314;-6.300;2023-01-28T10:51:00;102974.13;;;8.44;98.29
64368;BME280;50692;53.314;-6.300;2023-01-28T10:53:49;102970.56;;;8.53;98.33
64368;BME280;50692;53.314;-6.300;2023-01-28T10:56:35;102965.25;;;8.57;98.39
64368;BME280;50692;53.314;-6.300;2023-01-28T10:59:30;102966.06;;;8.64;98.51
64368;BME280;50692;53.314;-6.300;2023-01-28T11:02:36;102963.34;;;8.70;98.61
64368;BME280;50692;53.314;-6.300;2023-01-28T11:05:29;102958.03;;;8.78;98.54
64368;BME280;50692;53.314;-6.300;2023-01-28T11:08:16;102954.44;;;8.85;98.53
64368;BME280;50692;53.314;-6.300;2023-01-28T11:11:12;102933.25;;;8.91;98.38
64368;BME280;50692;53.314;-6.300;2023-01-28T11:13:59;102935.88;;;8.94;98.18
64368;BME280;50692;53.314;-6.300;2023-01-28T11:16:45;102934.06;;;8.99;98.30
64368;BME280;50692;53.314;-6.300;2023-01-28T11:19:35;102925.97;;;9.13;98.46
64368;BME280;50692;53.314;-6.300;2023-01-28T11:22:35;102915.22;;;9.31;98.67
64368;BME280;50692;53.314;-6.300;2023-01-28T11:28:18;102904.94;;;9.73;98.05
64368;BME280;50692;53.314;-6.300;2023-01-28T11:31:06;102908.13;;;9.95;97.56
64368;BME280;50692;53.314;-6.300;2023-01-28T11:33:55;102905.06;;;10.24;97.60
64368;BME280;50692;53.314;-6.300;2023-01-28T11:36:52;102895.97;;;10.42;96.50
64368;BME280;50692;53.314;-6.300;2023-01-28T11:39:38;102884.25;;;10.57;94.99
64368;BME280;50692;53.314;-6.300;2023-01-28T11:42:25;102885.88;;;10.63;93.93
64368;BME280;50692;53.314;-6.300;2023-01-28T11:45:16;102885.88;;;10.63;92.34
64368;BME280;50692;53.314;-6.300;2023-01-28T11:57:20;102902.31;;;10.30;90.49
64368;BME280;50692;53.314;-6.300;2023-01-28T12:03:26;102901.16;;;9.91;89.78
64368;BME280;50692;53.314;-6.300;2023-01-28T12:06:38;102896.09;;;9.77;90.09
64368;BME280;50692;53.314;-6.300;2023-01-28T12:09:39;102892.72;;;9.68;90.80
64368;BME280;50692;53.314;-6.300;2023-01-28T12:12:43;102893.81;;;9.53;91.56
64368;BME280;50692;53.314;-6.300;2023-01-28T12:22:32;102893.16;;;9.35;93.50
64368;BME280;50692;53.314;-6.300;2023-01-28T12:25:27;102888.78;;;9.33;94.33
64368;BME280;50692;53.314;-6.300;2023-01-28T12:31:42;102871.97;;;9.40;96.19
64368;BME280;50692;53.314;-6.300;2023-01-28T12:46:36;102849.13;;;9.37;97.69
64368;BME280;50692;53.314;-6.300;2023-01-28T12:49:34;102838.53;;;9.41;98.03
64368;BME280;50692;53.314;-6.300;2023-01-28T12:52:28;102836.03;;;9.30;97.69
64368;BME280;50692;53.314;-6.300;2023-01-28T12:55:39;102843.81;;;9.42;97.36
64368;BME280;50692;53.314;-6.300;2023-01-28T12:59:02;102838.34;;;9.54;97.09
64368;BME280;50692;53.314;-6.300;2023-01-28T13:01:51;102837.22;;;9.69;96.58
64368;BME280;50692;53.314;-6.300;2023-01-28T13:04:55;102832.25;;;10.06;96.09
64368;BME280;50692;53.314;-6.300;2023-01-28T13:07:49;102830.69;;;10.46;94.84
64368;BME280;50692;53.314;-6.300;2023-01-28T13:10:44;102844.59;;;10.55;91.29
64368;BME280;50692;53.314;-6.300;2023-01-28T13:13:35;102819.00;;;10.56;90.25
64368;BME280;50692;53.314;-6.300;2023-01-28T13:16:21;102823.22;;;10.66;89.93
64368;BME280;50692;53.314;-6.300;2023-01-28T13:19:21;102822.28;;;10.69;88.32
64368;BME280;50692;53.314;-6.300;2023-01-28T13:22:25;102818.69;;;10.73;88.01
64368;BME280;50692;53.314;-6.300;2023-01-28T13:25:24;102819.44;;;10.78;86.93
64368;BME280;50692;53.314;-6.300;2023-01-28T13:28:24;102810.78;;;10.71;86.54
64368;BME280;50692;53.314;-6.300;2023-01-28T13:31:14;102808.41;;;10.57;85.87
64368;BME280;50692;53.314;-6.300;2023-01-28T13:34:05;102810.19;;;10.57;86.08
64368;BME280;50692;53.314;-6.300;2023-01-28T13:36:52;102818.13;;;10.57;86.30
64368;BME280;50692;53.314;-6.300;2023-01-28T13:39:38;102810.22;;;10.55;86.15
64368;BME280;50692;53.314;-6.300;2023-01-28T13:42:31;102810.56;;;10.37;85.88
64368;BME280;50692;53.314;-6.300;2023-01-28T13:48:28;102809.50;;;9.96;87.28
64368;BME280;50692;53.314;-6.300;2023-01-28T13:51:22;102805.38;;;9.80;88.23
64368;BME280;50692;53.314;-6.300;2023-01-28T13:54:16;102800.22;;;9.72;88.88
64368;BME280;50692;53.314;-6.300;2023-01-28T14:18:34;102761.50;;;9.12;93.98
64368;BME280;50692;53.314;-6.300;2023-01-28T14:21:21;102758.88;;;9.14;94.45
64368;BME280;50692;53.314;-6.300;2023-01-28T14:24:15;102771.03;;;9.24;94.01
64368;BME280;50692;53.314;-6.300;2023-01-28T14:27:06;102779.94;;;9.17;94.20
64368;BME280;50692;53.314;-6.300;2023-01-28T14:32:51;102769.09;;;9.35;94.25
64368;BME280;50692;53.314;-6.300;2023-01-28T14:35:39;102763.72;;;9.42;93.75
64368;BME280;50692;53.314;-6.300;2023-01-28T14:38:35;102760.19;;;9.43;93.36
64368;BME280;50692;53.314;-6.300;2023-01-28T14:41:25;102778.41;;;9.59;92.99
64368;BME280;50692;53.314;-6.300;2023-01-28T14:44:34;102773.13;;;9.59;92.40
64368;BME280;50692;53.314;-6.300;2023-01-28T14:54:16;102782.06;;;9.51;92.43
64368;BME280;50692;53.314;-6.300;2023-01-28T14:57:18;102788.22;;;9.53;92.38
64368;BME280;50692;53.314;-6.300;2023-01-28T15:00:23;102793.53;;;9.48;92.51
64368;BME280;50692;53.314;-6.300;2023-01-28T15:03:17;102796.25;;;9.44;92.40
64368;BME280;50692;53.314;-6.300;2023-01-28T15:06:17;102792.75;;;9.42;92.41
64368;BME280;50692;53.314;-6.300;2023-01-28T15:09:11;102783.25;;;9.30;92.33
64368;BME280;50692;53.314;-6.300;2023-01-28T15:11:57;102801.81;;;9.25;92.54
64368;BME280;50692;53.314;-6.300;2023-01-28T15:14:44;102808.03;;;9.20;92.16
64368;BME280;50692;53.314;-6.300;2023-01-28T15:17:30;102811.59;;;9.17;92.10
64368;BME280;50692;53.314;-6.300;2023-01-28T15:20:19;102805.56;;;9.07;92.41
64368;BME280;50692;53.314;-6.300;2023-01-28T15:23:06;102803.88;;;9.03;92.53
64368;BME280;50692;53.314;-6.300;2023-01-28T15:25:53;102812.69;;;9.01;92.82
64368;BME280;50692;53.314;-6.300;2023-01-28T15:28:42;102804.88;;;8.93;93.31
64368;BME280;50692;53.314;-6.300;2023-01-28T15:31:31;102808.41;;;8.91;93.27
64368;BME280;50692;53.314;-6.300;2023-01-28T15:34:19;102807.56;;;8.90;93.71
64368;BME280;50692;53.314;-6.300;2023-01-28T15:37:05;102816.38;;;8.87;94.01
64368;BME280;50692;53.314;-6.300;2023-01-28T15:40:02;102804.94;;;8.87;94.38
64368;BME280;50692;53.314;-6.300;2023-01-28T15:42:51;102801.50;;;8.82;94.57
64368;BME280;50692;53.314;-6.300;2023-01-28T15:45:43;102801.53;;;8.77;94.93
64368;BME280;50692;53.314;-6.300;2023-01-28T15:48:32;102803.38;;;8.72;95.68
64368;BME280;50692;53.314;-6.300;2023-01-28T15:51:22;102797.16;;;8.78;95.36
64368;BME280;50692;53.314;-6.300;2023-01-28T15:54:09;102798.16;;;8.68;95.88
64368;BME280;50692;53.314;-6.300;2023-01-28T15:56:56;102805.19;;;8.65;96.76
64368;BME280;50692;53.314;-6.300;2023-01-28T15:59:41;102793.03;;;8.54;97.25
64368;BME280;50692;53.314;-6.300;2023-01-28T16:02:31;102789.56;;;8.49;97.74
64368;BME280;50692;53.314;-6.300;2023-01-28T16:05:29;102797.47;;;8.49;98.58
64368;BME280;50692;53.314;-6.300;2023-01-28T16:08:24;102800.13;;;8.50;98.78
64368;BME280;50692;53.314;-6.300;2023-01-28T16:11:12;102799.25;;;8.50;98.91
64368;BME280;50692;53.314;-6.300;2023-01-28T16:13:58;102802.81;;;8.44;98.91
64368;BME280;50692;53.314;-6.300;2023-01-28T16:16:46;102808.97;;;8.41;99.22
64368;BME280;50692;53.314;-6.300;2023-01-28T16:19:41;102804.63;;;8.36;99.70
64368;BME280;50692;53.314;-6.300;2023-01-28T16:22:35;102795.81;;;8.40;99.38
64368;BME280;50692;53.314;-6.300;2023-01-28T16:25:31;102787.94;;;8.35;99.52
64368;BME280;50692;53.314;-6.300;2023-01-28T16:28:18;102793.25;;;8.32;99.97
64368;BME280;50692;53.314;-6.300;2023-01-28T16:31:04;102788.03;;;8.26;100.00
64368;BME280;50692;53.314;-6.300;2023-01-28T16:33:50;102778.38;;;8.24;100.00